Time;durP1;ratioP1;P1;durP2;ratioP2;P2;SDS_P1;SDS_P2;PMS_P1;PMS_P2;Temp;Humidity;BMP_temperature;BMP_pressure;BME280_temperature;BME280_humidity;BME280_pressure;Samples;Min_cycle;Max_cycle;Signal;HPM_P1;HPM_P2
2022/05/19 00:02:58;;;;;;;1.77;1.30;;;;;;;9.24;59.40;101202.47;6301878;28;20549;-77
2022/05/19 00:06:01;;;;;;;7.55;1.40;;;;;;;9.18;57.91;101209.66;6301724;28;20044;-77
2022/05/19 00:09:01;;;;;;;;;;;;;;;9.18;63.13;101204.44;6300667;28;20041;-74
2022/05/19 00:12:10;;;;;;;2.30;1.40;;;;;;;9.19;65.07;101199.19;6283449;28;20067;-73
2022/05/19 00:15:12;;;;;;;3.05;1.50;;;;;;;9.18;65.78;101197.50;6283392;28;20137;-77
2022/05/19 00:18:13;;;;;;;3.13;1.20;;;;;;;9.05;62.57;101199.69;6301647;28;20044;-77
2022/05/19 00:21:13;;;;;;;2.58;1.88;;;;;;;9.02;59.27;101205.03;6283358;28;20040;-74
2022/05/19 00:24:14;;;;;;;3.42;1.50;;;;;;;8.88;58.87;101207.28;6300817;28;20093;-74
2022/05/19 00:27:15;;;;;;;2.67;1.38;;;;;;;8.79;59.38;101210.19;6300593;28;20052;-74
2022/05/19 00:30:16;;;;;;;3.17;1.50;;;;;;;8.82;60.04;101212.69;6283038;28;20099;-76
2022/05/19 00:33:17;;;;;;;3.47;1.75;;;;;;;8.92;64.85;101208.88;6300354;28;20043;-77
2022/05/19 00:36:20;;;;;;;5.65;1.52;;;;;;;8.97;66.29;101206.09;6299538;28;20064;-76
2022/05/19 00:39:20;;;;;;;5.30;1.73;;;;;;;8.85;62.00;101202.16;6299715;28;20044;-73
2022/05/19 00:45:51;;;;;;;2.45;1.42;;;;;;;8.83;63.97;101202.25;6300691;28;20044;-74
2022/05/19 00:49:17;;;;;;;5.95;1.42;;;;;;;8.76;67.08;101192.94;6299154;28;20051;-76
2022/05/19 00:52:35;;;;;;;2.15;1.35;;;;;;;8.73;66.75;101200.00;6300740;28;20037;-77
2022/05/19 00:55:46;;;;;;;5.03;1.60;;;;;;;8.68;67.99;101197.56;6300265;28;20098;-73
2022/05/19 00:58:53;;;;;;;2.28;1.40;;;;;;;8.54;69.16;101195.41;6282514;28;20059;-77
2022/05/19 01:01:55;;;;;;;2.60;1.55;;;;;;;8.49;69.50;101193.91;6300446;28;20581;-73
2022/05/19 01:05:10;;;;;;;5.45;1.63;;;;;;;8.43;70.52;101189.75;6299473;28;20033;-74
2022/05/19 01:08:19;;;;;;;8.07;1.92;;;;;;;8.38;71.56;101191.59;6281983;28;20063;-74
2022/05/19 01:11:19;;;;;;;2.03;1.40;;;;;;;8.34;73.10;101195.22;6298863;28;20083;-76
2022/05/19 01:14:20;;;;;;;4.63;1.63;;;;;;;8.09;68.70;101190.81;6282356;28;20052;-74
2022/05/19 01:17:22;;;;;;;11.85;1.45;;;;;;;8.02;67.42;101203.19;6299123;28;20044;-73
2022/05/19 01:20:25;;;;;;;2.25;1.27;;;;;;;7.92;65.88;101196.56;6281843;28;20048;-74
2022/05/19 01:23:41;;;;;;;2.67;1.40;;;;;;;7.70;66.94;101204.22;6299727;28;20471;-76
2022/05/19 01:26:52;;;;;;;3.50;1.50;;;;;;;7.57;66.84;101202.88;6299885;28;20051;-77
2022/05/19 01:29:54;;;;;;;7.30;1.35;;;;;;;7.59;66.92;101201.91;6299542;28;20043;-74
2022/05/19 01:32:55;;;;;;;3.10;1.35;;;;;;;7.63;67.43;101207.88;6299449;28;20044;-74
2022/05/19 01:35:56;;;;;;;2.83;1.40;;;;;;;7.65;66.93;101203.47;6299426;28;20548;-77
2022/05/19 01:39:05;;;;;;;5.97;1.70;;;;;;;7.57;65.02;101200.25;6299490;28;20044;-74
2022/05/19 01:42:37;;;;;;;3.40;1.33;;;;;;;7.66;68.31;101205.19;6281546;28;20415;-74
2022/05/19 01:45:47;;;;;;;6.32;2.80;;;;;;;7.74;65.98;101205.81;6281108;28;20056;-74
2022/05/19 01:48:57;;;;;;;3.50;2.55;;;;;;;7.77;67.67;101202.25;6298957;28;20119;-76
2022/05/19 01:52:20;;;;;;;3.10;1.55;;;;;;;7.72;64.37;101202.41;6281096;28;20040;-77
2022/05/19 01:55:34;;;;;;;7.85;1.80;;;;;;;7.67;65.03;101209.47;6297196;28;20063;-74
2022/05/19 01:58:48;;;;;;;3.53;1.33;;;;;;;7.69;64.82;101196.44;6296765;28;20466;-76
2022/05/19 02:02:14;;;;;;;3.03;1.55;;;;;;;7.67;63.94;101202.53;6281035;28;20051;-73
2022/05/19 02:05:27;;;;;;;6.22;1.80;;;;;;;7.72;67.67;101199.81;6298754;28;20040;-74
2022/05/19 02:08:38;;;;;;;3.10;1.65;;;;;;;7.71;70.97;101197.25;6297498;28;20403;-73
2022/05/19 02:11:43;;;;;;;3.37;1.90;;;;;;;7.66;75.19;101198.25;6298478;28;20045;-73
2022/05/19 02:14:48;;;;;;;4.63;1.90;;;;;;;7.65;73.09;101196.53;6298402;28;20041;-73
2022/05/19 02:17:50;;;;;;;4.63;1.75;;;;;;;7.61;70.79;101199.28;6297157;28;20037;-77
2022/05/19 02:20:55;;;;;;;3.42;1.70;;;;;;;7.43;67.45;101196.34;6280609;28;20123;-77
2022/05/19 02:24:01;;;;;;;6.82;2.42;;;;;;;7.44;66.66;101202.38;6298323;28;20127;-73
2022/05/19 02:27:31;;;;;;;3.75;1.77;;;;;;;7.45;70.79;101204.94;6297809;28;20044;-76
2022/05/19 02:30:35;;;;;;;6.45;1.70;;;;;;;7.39;69.72;101199.94;6297154;28;20094;-76
2022/05/19 02:33:36;;;;;;;6.07;1.75;;;;;;;7.40;72.28;101208.56;6298038;28;20040;-74
2022/05/19 02:36:37;;;;;;;3.72;1.38;;;;;;;7.37;74.48;101212.09;6296964;28;20053;-76
2022/05/19 02:39:39;;;;;;;4.17;1.80;;;;;;;7.30;71.53;101210.56;6297750;28;20048;-76
2022/05/19 02:42:41;;;;;;;2.85;1.73;;;;;;;7.28;68.55;101212.34;6280121;28;20474;-74
2022/05/19 02:45:42;;;;;;;6.13;1.70;;;;;;;7.31;73.96;101209.69;6280004;28;20054;-77
2022/05/19 02:48:43;;;;;;;5.00;1.70;;;;;;;7.33;75.21;101209.63;6297739;28;20525;-77
2022/05/19 02:51:44;;;;;;;3.17;1.50;;;;;;;7.28;76.92;101207.16;6296904;28;20068;-76
2022/05/19 02:54:45;;;;;;;2.45;1.73;;;;;;;7.28;76.76;101214.13;6297703;28;20036;-76
2022/05/19 02:57:48;;;;;;;6.55;2.00;;;;;;;7.24;77.04;101210.75;6297674;28;20037;-77
2022/05/19 03:00:50;;;;;;;2.28;1.65;;;;;;;7.25;76.94;101220.25;6279325;28;20052;-74
2022/05/19 03:03:51;;;;;;;3.83;1.90;;;;;;;7.31;76.32;101224.41;6296006;28;20060;-74
2022/05/19 03:06:52;;;;;;;2.13;1.50;;;;;;;7.26;76.60;101225.38;6278685;28;20119;-74
2022/05/19 03:09:53;;;;;;;6.72;1.70;;;;;;;7.33;75.87;101222.59;6279582;28;20043;-76
2022/05/19 03:12:56;;;;;;;2.75;1.45;;;;;;;7.28;75.61;101233.13;6297166;28;20040;-76
2022/05/19 03:15:57;;;;;;;4.32;1.70;;;;;;;7.17;75.93;101238.63;6279735;28;20036;-76
2022/05/19 03:18:57;;;;;;;6.68;1.73;;;;;;;7.17;76.86;101227.41;6297436;28;20045;-76
2022/05/19 03:21:58;;;;;;;10.27;2.35;;;;;;;6.98;77.16;101221.84;6296368;28;20384;-76
2022/05/19 03:24:59;;;;;;;3.78;1.50;;;;;;;6.97;78.15;101225.34;6297590;28;20093;-76
2022/05/19 03:27:59;;;;;;;4.43;1.77;;;;;;;6.93;78.10;101231.53;6279456;28;20064;-73
2022/05/19 03:31:00;;;;;;;7.85;1.90;;;;;;;6.94;78.32;101235.81;6246342;28;20562;-73
2022/05/19 03:34:02;;;;;;;3.75;1.52;;;;;;;6.99;78.35;101226.16;6279199;28;20071;-76
2022/05/19 03:37:05;;;;;;;3.75;1.40;;;;;;;7.05;79.34;101233.78;6279433;28;20110;-76
2022/05/19 03:40:07;;;;;;;2.97;1.83;;;;;;;7.11;78.69;101236.19;6297247;28;20071;-76
2022/05/19 03:43:08;;;;;;;4.18;1.38;;;;;;;7.14;80.94;101232.66;6297627;28;20090;-77
2022/05/19 03:46:09;;;;;;;5.55;1.73;;;;;;;7.16;79.95;101236.91;6297215;28;20105;-77
2022/05/19 03:49:11;;;;;;;5.55;1.63;;;;;;;7.22;81.48;101251.47;6295934;28;20066;-77
2022/05/19 03:52:12;;;;;;;5.70;2.22;;;;;;;7.27;82.45;101249.63;6297022;28;20052;-76
2022/05/19 03:55:14;;;;;;;4.03;2.13;;;;;;;7.37;83.31;101255.38;6279308;28;20053;-76
2022/05/19 03:58:14;;;;;;;2.40;1.63;;;;;;;7.40;82.50;101261.34;6278730;28;20056;-77
2022/05/19 04:01:16;;;;;;;5.30;1.95;;;;;;;7.47;82.23;101268.06;6296282;28;20093;-76
2022/05/19 04:04:17;;;;;;;4.57;2.15;;;;;;;7.53;81.92;101269.63;6296778;28;20051;-74
2022/05/19 04:07:18;;;;;;;4.55;1.90;;;;;;;7.60;81.60;101267.72;6296829;28;20045;-74
2022/05/19 04:10:19;;;;;;;4.43;1.83;;;;;;;7.69;79.06;101266.59;6295893;28;20041;-75
2022/05/19 04:13:20;;;;;;;6.45;1.88;;;;;;;7.79;76.54;101268.88;6295823;28;20036;-74
2022/05/19 04:16:20;;;;;;;4.80;1.70;;;;;;;7.90;77.50;101278.09;6297013;28;20045;-76
2022/05/19 04:19:21;;;;;;;7.40;2.22;;;;;;;8.02;74.76;101278.56;6296746;28;20115;-77
2022/05/19 04:22:22;;;;;;;3.58;1.80;;;;;;;8.22;69.41;101279.69;6280541;28;20494;-76
2022/05/19 04:25:23;;;;;;;8.68;1.70;;;;;;;8.46;63.59;101273.75;6283577;28;20040;-77
2022/05/19 04:28:24;;;;;;;6.63;1.70;;;;;;;8.76;61.39;101276.22;6299663;28;20048;-77
2022/05/19 04:31:25;;;;;;;7.55;1.50;;;;;;;8.92;62.71;101275.69;6300575;28;20066;-76
2022/05/19 04:34:26;;;;;;;8.18;1.60;;;;;;;9.08;62.20;101282.91;6299765;28;20059;-76
2022/05/19 04:37:27;;;;;;;6.38;2.72;;;;;;;9.26;62.62;101288.34;6300645;28;20037;-74
2022/05/19 04:40:27;;;;;;;6.72;2.90;;;;;;;9.34;60.88;101286.31;6282741;28;20065;-76
2022/05/19 04:43:29;;;;;;;13.63;2.97;;;;;;;9.54;59.49;101292.59;6282697;28;20056;-74
2022/05/19 04:46:30;;;;;;;5.38;2.22;;;;;;;9.66;59.43;101289.53;6300325;28;20044;-74
2022/05/19 04:49:32;;;;;;;4.78;2.13;;;;;;;9.74;59.39;101282.25;6282567;28;20037;-75
2022/05/19 04:52:32;;;;;;;4.80;1.90;;;;;;;9.74;57.85;101284.00;6282296;28;20040;-75
2022/05/19 04:55:36;;;;;;;3.50;1.58;;;;;;;9.81;58.29;101286.31;6299436;28;20455;-76
2022/05/19 04:58:37;;;;;;;3.17;2.00;;;;;;;9.82;59.05;101277.59;6282894;28;20113;-74
2022/05/19 05:01:38;;;;;;;5.18;2.30;;;;;;;9.87;58.03;101283.47;6282612;28;20098;-77
2022/05/19 05:04:39;;;;;;;8.05;2.72;;;;;;;10.08;57.66;101293.97;6282528;28;20429;-74
2022/05/19 05:07:40;;;;;;;4.88;2.22;;;;;;;10.26;56.99;101295.03;6298940;28;20071;-74
2022/05/19 05:10:41;;;;;;;5.93;1.60;;;;;;;10.54;56.11;101289.56;6282513;28;20374;-77
2022/05/19 05:13:42;;;;;;;5.72;1.60;;;;;;;10.81;53.72;101292.78;6300225;28;20064;-77
2022/05/19 05:16:46;;;;;;;3.63;1.60;;;;;;;10.89;53.97;101293.31;6282328;28;20056;-74
2022/05/19 05:19:47;;;;;;;3.80;1.50;;;;;;;11.01;54.04;101289.31;6299987;28;20048;-73
2022/05/19 05:22:48;;;;;;;3.00;1.50;;;;;;;11.21;49.96;101292.84;6298671;28;20273;-74
2022/05/19 05:25:49;;;;;;;2.25;1.45;;;;;;;11.27;50.54;101284.72;6281985;28;20050;-74
2022/05/19 05:28:50;;;;;;;2.97;1.77;;;;;;;11.37;51.31;101286.00;6298536;28;20062;-74
2022/05/19 05:31:51;;;;;;;4.32;1.42;;;;;;;11.42;53.25;101289.25;6299709;28;20044;-74
2022/05/19 05:34:52;;;;;;;13.05;1.95;;;;;;;11.54;50.92;101290.47;6280720;28;20427;-74
2022/05/19 05:37:53;;;;;;;9.23;1.98;;;;;;;11.75;51.55;101303.50;6264830;28;20053;-75
2022/05/19 05:40:54;;;;;;;5.57;1.50;;;;;;;11.87;50.52;101301.16;6298536;28;20048;-77
2022/05/19 05:43:55;;;;;;;7.93;2.10;;;;;;;12.00;51.21;101304.06;6264989;28;20056;-77
2022/05/19 05:46:56;;;;;;;2.55;1.55;;;;;;;12.09;49.59;101294.94;6297657;28;20103;-74
2022/05/19 05:49:57;;;;;;;3.90;2.00;;;;;;;12.20;47.79;101304.91;6299734;28;20487;-77
2022/05/19 05:52:58;;;;;;;4.07;2.30;;;;;;;12.48;48.80;101310.50;6283932;28;20105;-77
2022/05/19 05:55:58;;;;;;;7.18;2.00;;;;;;;12.61;47.04;101309.91;6322718;28;20071;-74
2022/05/19 05:58:59;;;;;;;4.07;1.88;;;;;;;12.72;46.48;101311.97;6304972;28;20136;-75
2022/05/19 06:02:00;;;;;;;11.45;2.10;;;;;;;12.83;45.78;101323.63;6288352;28;20059;-74
2022/05/19 06:05:01;;;;;;;10.77;2.10;;;;;;;13.07;44.59;101316.28;6288530;28;20051;-77
2022/05/19 06:08:02;;;;;;;7.35;2.15;;;;;;;13.22;46.85;101311.16;6305101;28;20483;-77
2022/05/19 06:11:04;;;;;;;3.35;1.67;;;;;;;13.38;46.03;101319.94;6305058;28;20055;-77
2022/05/19 06:14:04;;;;;;;5.32;2.13;;;;;;;13.50;44.90;101321.91;6305179;28;20040;-78
2022/05/19 06:17:05;;;;;;;3.42;1.92;;;;;;;13.64;43.28;101325.59;6303673;28;20040;-74
2022/05/19 06:20:13;;;;;;;5.18;1.67;;;;;;;13.86;42.82;101328.75;6288055;28;20052;-77
2022/05/19 06:23:16;;;;;;;7.15;1.60;;;;;;;14.00;43.00;101319.25;6287454;28;20052;-74
2022/05/19 06:26:17;;;;;;;7.18;1.77;;;;;;;14.22;42.76;101332.88;6271407;28;20414;-73
2022/05/19 06:29:18;;;;;;;5.65;1.80;;;;;;;14.44;41.16;101323.81;6287525;28;20040;-73
2022/05/19 06:32:19;;;;;;;5.40;1.70;;;;;;;14.60;42.21;101329.03;6304338;28;20051;-73
2022/05/19 06:35:23;;;;;;;7.90;1.55;;;;;;;14.86;39.90;101332.78;6262846;28;20052;-73
2022/05/19 06:38:24;;;;;;;15.30;1.45;;;;;;;15.05;40.51;101338.66;6315074;28;20071;-77
2022/05/19 06:44:44;;;;;;;2.20;1.33;;;;;;;15.29;38.76;101331.06;6306576;28;20044;-74
2022/05/19 06:47:46;;;;;;;4.70;1.50;;;;;;;15.51;38.41;101330.63;6321775;28;20395;-73
2022/05/19 06:50:46;;;;;;;5.07;1.30;;;;;;;15.74;37.01;101330.16;6322476;28;20067;-73
2022/05/19 06:53:47;;;;;;;7.72;2.08;;;;;;;16.02;37.95;101322.22;6303282;28;20409;-77
2022/05/19 06:56:48;;;;;;;5.90;1.30;;;;;;;16.24;36.47;101316.41;6321936;28;20044;-73
2022/05/19 06:59:50;;;;;;;6.78;1.38;;;;;;;16.39;34.84;101319.84;6286730;28;20070;-78
2022/05/19 07:02:54;;;;;;;6.30;1.15;;;;;;;16.41;33.70;101312.69;6286667;28;20055;-78
2022/05/19 07:05:54;;;;;;;4.55;1.20;;;;;;;16.67;35.38;101312.75;6303904;28;20494;-73
2022/05/19 07:08:58;;;;;;;8.95;1.20;;;;;;;16.75;33.44;101313.06;6322246;28;20039;-78
2022/05/19 07:12:00;;;;;;;3.20;1.30;;;;;;;16.95;33.28;101324.97;6287189;28;20044;-77
2022/05/19 07:15:01;;;;;;;2.85;1.52;;;;;;;16.84;30.53;101322.19;6304439;28;20113;-73
2022/05/19 07:18:02;;;;;;;2.47;1.15;;;;;;;17.15;31.59;101317.47;6303591;28;20307;-77
2022/05/19 07:21:03;;;;;;;3.65;1.20;;;;;;;17.18;30.78;101323.38;6322282;28;20048;-78
2022/05/19 07:24:04;;;;;;;2.35;1.45;;;;;;;17.51;31.85;101319.34;6303453;28;20040;-77
2022/05/19 07:27:05;;;;;;;2.92;1.23;;;;;;;17.66;31.37;101322.69;6287562;28;20066;-74
2022/05/19 07:30:08;;;;;;;4.05;1.33;;;;;;;17.70;30.16;101321.53;6286823;28;20059;-74
2022/05/19 07:33:09;;;;;;;1.30;1.17;;;;;;;17.74;30.35;101315.09;6286937;28;20048;-78
2022/05/19 07:36:10;;;;;;;5.80;1.40;;;;;;;17.81;30.70;101305.78;6286766;28;20129;-73
2022/05/19 07:39:11;;;;;;;4.13;1.35;;;;;;;18.18;29.86;101320.78;6303946;28;20040;-78
2022/05/19 07:42:12;;;;;;;5.30;1.23;;;;;;;18.39;30.16;101321.88;6303316;28;20051;-79
2022/05/19 07:45:15;;;;;;;3.15;1.38;;;;;;;18.67;29.18;101325.06;6286668;28;20048;-74
2022/05/19 07:48:15;;;;;;;4.78;1.15;;;;;;;18.61;29.83;101329.00;6303572;28;20052;-78
2022/05/19 07:51:16;;;;;;;3.05;0.98;;;;;;;18.73;29.73;101332.56;6321711;28;20085;-78
2022/05/19 07:54:23;;;;;;;4.13;1.08;;;;;;;19.01;27.15;101336.63;6286569;28;20040;-74
2022/05/19 07:57:24;;;;;;;8.45;1.60;;;;;;;18.84;29.42;101327.34;6305156;28;20048;-74
2022/05/19 08:00:25;;;;;;;2.63;1.00;;;;;;;18.85;27.04;101320.25;6291312;28;20406;-74
2022/05/19 08:03:26;;;;;;;2.42;0.93;;;;;;;19.10;27.07;101319.22;6307959;28;20044;-74
2022/05/19 08:06:28;;;;;;;4.35;1.40;;;;;;;19.01;29.44;101327.84;6307745;28;20117;-74
2022/05/19 08:16:07;;;;;;;6.30;1.30;;;;;;;19.66;27.51;101327.19;6307898;28;20044;-78
2022/05/19 08:19:10;;;;;;;11.45;1.13;;;;;;;19.92;27.79;101319.81;6290880;28;20486;-74
2022/05/19 08:22:11;;;;;;;3.38;1.13;;;;;;;19.89;29.03;101321.84;6325758;28;20051;-78
2022/05/19 08:25:13;;;;;;;8.98;1.10;;;;;;;20.13;29.24;101316.38;6307960;28;20044;-74
2022/05/19 08:28:16;;;;;;;3.67;1.27;;;;;;;19.84;27.88;101324.88;6291014;28;20490;-74
2022/05/19 08:31:23;;;;;;;1.63;1.08;;;;;;;20.38;27.60;101317.03;6291185;28;20059;-79
2022/05/19 08:34:24;;;;;;;5.60;1.10;;;;;;;20.53;28.54;101321.91;6325368;28;20089;-78
2022/05/19 08:37:25;;;;;;;3.37;1.40;;;;;;;20.62;27.71;101312.38;6291143;28;20048;-79
2022/05/19 08:40:26;;;;;;;8.43;1.40;;;;;;;21.06;27.58;101325.50;6325789;28;20466;-79
2022/05/19 08:43:37;;;;;;;4.80;1.40;;;;;;;20.76;27.11;101321.00;6274380;28;20052;-73
2022/05/19 08:46:48;;;;;;;4.25;1.30;;;;;;;21.23;28.20;101316.09;6307367;28;20058;-74
2022/05/19 08:50:18;;;;;;;5.50;1.20;;;;;;;21.52;27.13;101314.44;6325059;28;20383;-74
2022/05/19 08:53:19;;;;;;;7.68;1.33;;;;;;;21.30;27.38;101314.59;6271786;28;20115;-79
2022/05/19 08:56:31;;;;;;;6.70;1.60;;;;;;;21.32;26.44;101312.66;6290313;28;20055;-74
2022/05/19 08:59:35;;;;;;;2.60;1.00;;;;;;;20.76;25.12;101307.75;6289735;28;20063;-74
2022/05/19 09:03:08;;;;;;;2.30;1.13;;;;;;;21.28;24.29;101311.25;6306543;28;20521;-74
2022/05/19 09:06:38;;;;;;;2.22;1.10;;;;;;;21.13;24.54;101306.28;6324700;28;20044;-74
2022/05/19 09:09:57;;;;;;;6.88;1.10;;;;;;;21.21;24.87;101310.94;6323461;28;20089;-74
2022/05/19 09:13:21;;;;;;;5.75;1.17;;;;;;;21.42;25.32;101310.06;6324620;28;20046;-79
2022/05/19 09:16:27;;;;;;;8.10;1.27;;;;;;;21.85;26.05;101295.66;6325173;28;20037;-79
2022/05/19 09:19:35;;;;;;;3.78;1.08;;;;;;;21.84;25.90;101300.13;6289925;28;20421;-79
2022/05/19 09:22:36;;;;;;;1.73;1.00;;;;;;;22.17;24.87;101305.22;6306612;28;20450;-74
2022/05/19 09:25:44;;;;;;;4.97;1.02;;;;;;;22.63;26.52;101301.88;6306412;28;20048;-80
2022/05/19 09:28:45;;;;;;;8.63;1.00;;;;;;;22.54;22.52;101298.22;6306536;28;20052;-79
2022/05/19 09:31:47;;;;;;;5.13;1.03;;;;;;;21.93;25.07;101301.16;6323684;28;20113;-79
2022/05/19 09:34:51;;;;;;;2.00;1.00;;;;;;;22.10;24.17;101287.16;6289058;28;20406;-75
2022/05/19 09:38:23;;;;;;;2.17;1.17;;;;;;;22.09;26.17;101284.63;6305878;28;20075;-74
2022/05/19 09:41:40;;;;;;;1.55;0.90;;;;;;;22.73;22.79;101285.88;6288953;28;20044;-74
2022/05/19 09:44:53;;;;;;;1.17;0.85;;;;;;;22.70;23.07;101279.03;6288216;28;20048;-78
2022/05/19 09:48:03;;;;;;;4.05;1.10;;;;;;;21.97;23.58;101275.97;6305991;28;20066;-73
2022/05/19 09:51:11;;;;;;;3.70;1.20;;;;;;;21.88;24.07;101276.78;6305505;28;20040;-78
2022/05/19 09:54:12;;;;;;;3.75;0.90;;;;;;;22.70;24.69;101276.38;6305561;28;20048;-74
2022/05/19 09:57:18;;;;;;;5.93;1.17;;;;;;;23.23;22.82;101275.00;6289078;28;20086;-74
2022/05/19 10:00:30;;;;;;;2.33;0.90;;;;;;;22.11;23.53;101270.25;6305203;28;20056;-74
2022/05/19 10:03:39;;;;;;;4.35;0.85;;;;;;;22.32;23.51;101259.50;6288355;28;20085;-76
2022/05/19 10:06:48;;;;;;;4.82;0.90;;;;;;;23.21;24.67;101262.84;6305031;28;20087;-78
2022/05/19 10:09:51;;;;;;;3.28;1.48;;;;;;;23.34;22.65;101265.97;6305416;28;20036;-78
2022/05/19 10:12:58;;;;;;;2.05;1.33;;;;;;;23.51;24.43;101259.88;6323624;28;20051;-74
2022/05/19 10:16:30;;;;;;;5.43;1.10;;;;;;;23.37;23.76;101254.19;6323265;28;20040;-79
2022/05/19 10:20:00;;;;;;;1.80;0.83;;;;;;;23.16;22.65;101260.59;6304871;28;20048;-74
2022/05/19 10:23:19;;;;;;;6.50;0.95;;;;;;;23.34;21.50;101258.81;6309651;28;20131;-73
2022/05/19 10:26:39;;;;;;;4.07;1.25;;;;;;;23.36;25.74;101247.19;6304439;28;20052;-74
2022/05/19 10:33:54;;;;;;;4.80;1.55;;;;;;;23.49;23.09;101237.03;6304746;28;20407;-78
2022/05/19 10:37:34;;;;;;;1.75;0.93;;;;;;;23.88;23.05;101236.78;6322751;28;20470;-74
2022/05/19 10:40:47;;;;;;;5.53;0.70;;;;;;;23.47;23.15;101234.53;6259845;28;20140;-79
2022/05/19 10:44:06;;;;;;;4.35;1.08;;;;;;;23.40;23.59;101232.59;6322477;28;20040;-73
2022/05/19 10:47:22;;;;;;;1.33;1.05;;;;;;;23.17;22.97;101227.66;6322318;28;20123;-74
2022/05/19 10:50:26;;;;;;;3.20;1.00;;;;;;;23.68;23.01;101220.06;6287353;28;20056;-74
2022/05/19 10:53:54;;;;;;;6.78;1.20;;;;;;;23.37;23.81;101220.44;6304044;28;20044;-78
2022/05/19 10:57:20;;;;;;;1.33;0.88;;;;;;;23.59;22.38;101221.00;6304469;28;20498;-78
2022/05/19 11:00:42;;;;;;;3.15;1.30;;;;;;;24.40;24.62;101212.94;6303853;28;20075;-80
2022/05/19 11:03:48;;;;;;;2.97;1.00;;;;;;;24.21;23.35;101210.44;6287680;28;20052;-79
2022/05/19 11:07:07;;;;;;;2.83;0.98;;;;;;;23.27;22.75;101212.50;6322176;28;20044;-74
2022/05/19 11:10:23;;;;;;;5.78;1.20;;;;;;;22.82;23.23;101209.72;6321894;28;20040;-74
2022/05/19 11:14:34;;;;;;;3.75;1.23;;;;;;;24.02;24.51;101204.28;6321843;28;20044;-74
2022/05/19 11:17:56;;;;;;;2.40;0.65;;;;;;;24.35;22.79;101193.88;6175065;28;20104;-74
2022/05/19 11:20:57;;;;;;;5.85;1.20;;;;;;;24.26;23.12;101190.31;6204441;28;20048;-75
2022/05/19 11:24:06;;;;;;;4.80;0.90;;;;;;;23.06;22.69;101196.75;6296651;28;20044;-74
2022/05/19 11:27:20;;;;;;;3.45;0.88;;;;;;;23.80;22.86;101192.25;6298321;28;20074;-73
2022/05/19 11:30:29;;;;;;;1.83;0.80;;;;;;;24.51;24.65;101196.69;6303683;28;20036;-75
2022/05/19 11:33:39;;;;;;;3.40;0.88;;;;;;;24.25;21.06;101185.97;6307256;28;20040;-74
2022/05/19 11:37:20;;;;;;;1.80;1.00;;;;;;;24.51;20.81;101171.84;6308540;28;20078;-75
2022/05/19 11:40:23;;;;;;;2.55;1.00;;;;;;;25.02;22.50;101167.41;6307054;28;20164;-78
2022/05/19 11:43:59;;;;;;;1.70;0.90;;;;;;;25.37;21.93;101164.69;6325937;28;20048;-74
2022/05/19 11:55:12;;;;;;;2.53;0.95;;;;;;;25.91;22.71;101157.13;6301653;28;20062;-75
2022/05/19 11:58:01;;;;;;;3.58;0.85;;;;;;;24.23;20.94;101147.13;6326381;28;20479;-75
2022/05/19 12:01:08;;;;;;;3.17;0.90;;;;;;;25.20;20.46;101137.91;6326328;28;20539;-79
2022/05/19 12:04:19;;;;;;;2.38;1.10;;;;;;;24.52;20.16;101144.16;6326517;28;20044;-78
2022/05/19 12:07:34;;;;;;;4.22;0.93;;;;;;;23.96;19.98;101132.94;6326383;28;20032;-77
2022/05/19 12:10:39;;;;;;;1.77;0.80;;;;;;;25.23;24.33;101126.97;6326008;28;20050;-79
2022/05/19 12:13:49;;;;;;;1.80;1.02;;;;;;;24.57;20.05;101139.19;6307873;28;20411;-75
2022/05/19 12:17:11;;;;;;;2.72;0.85;;;;;;;24.80;23.18;101114.63;6307989;28;20682;-79
2022/05/19 12:20:36;;;;;;;;;;;;;;;25.24;20.92;101122.44;6291176;28;20047;-78
2022/05/19 12:23:42;;;;;;;0.85;0.60;;;;;;;24.65;19.73;101123.22;6307287;28;20374;-79
2022/05/19 12:26:51;;;;;;;1.90;0.90;;;;;;;24.47;21.03;101128.59;6307751;28;20125;-74
2022/05/19 12:33:36;;;;;;;2.13;0.80;;;;;;;24.96;20.55;101109.34;6306834;28;20040;-75
2022/05/19 12:36:41;;;;;;;4.38;1.05;;;;;;;24.77;22.09;101109.59;6324572;28;20494;-75
2022/05/19 12:39:50;;;;;;;4.45;1.48;;;;;;;25.00;22.86;101105.34;6289780;28;20112;-76
2022/05/19 12:43:30;;;;;;;5.55;0.90;;;;;;;25.38;21.06;101103.09;6306978;28;20409;-75
2022/05/19 12:46:35;;;;;;;8.73;1.13;;;;;;;25.85;21.13;101107.81;6312113;28;20078;-79
2022/05/19 12:49:37;;;;;;;6.28;0.90;;;;;;;25.89;20.30;101100.28;6307026;28;20506;-79
2022/05/19 12:52:56;;;;;;;;;;;;;;;25.64;21.25;101104.81;6290650;28;20047;-75
2022/05/19 12:55:58;;;;;;;4.82;1.10;;;;;;;24.72;20.18;101104.75;6324701;28;19920;-75
2022/05/19 12:59:03;;;;;;;2.83;0.82;;;;;;;24.24;20.39;101095.47;6306480;28;20052;-79
2022/05/19 13:02:25;;;;;;;2.10;0.88;;;;;;;24.40;20.49;101092.03;6323537;28;20040;-75
2022/05/19 13:05:33;;;;;;;5.13;0.90;;;;;;;24.64;20.96;101096.69;6288607;28;20082;-74
2022/05/19 13:08:39;;;;;;;3.53;1.30;;;;;;;24.69;20.25;101086.41;6324164;28;20086;-74
2022/05/19 13:11:53;;;;;;;2.65;0.90;;;;;;;24.45;20.22;101084.41;6306489;28;20048;-79
2022/05/19 13:15:02;;;;;;;1.60;0.90;;;;;;;24.84;21.89;101083.94;6306575;28;20051;-79
2022/05/19 13:18:08;;;;;;;3.75;0.95;;;;;;;25.05;21.71;101080.81;6325012;28;20401;-79
2022/05/19 13:21:20;;;;;;;4.75;1.02;;;;;;;24.42;21.57;101079.38;6306325;28;20414;-74
2022/05/19 13:24:24;;;;;;;4.40;1.05;;;;;;;24.68;21.96;101074.88;6306364;28;20071;-79
2022/05/19 13:30:51;;;;;;;6.10;1.00;;;;;;;24.65;22.55;101064.53;6305146;28;20044;-75
2022/05/19 13:33:57;;;;;;;4.65;0.93;;;;;;;24.53;21.39;101071.16;6287865;28;20040;-77
2022/05/19 13:37:00;;;;;;;1.55;0.80;;;;;;;23.92;21.68;101064.94;6323946;28;20482;-77
2022/05/19 13:40:17;;;;;;;1.35;0.70;;;;;;;23.63;22.27;101058.03;6323747;28;20044;-74
2022/05/19 13:43:30;;;;;;;4.53;1.23;;;;;;;24.14;23.15;101059.06;6323684;28;20052;-74
2022/05/19 13:46:37;;;;;;;3.05;0.82;;;;;;;24.36;23.43;101053.34;6323699;28;20064;-74
2022/05/19 13:49:39;;;;;;;2.20;0.88;;;;;;;24.34;22.06;101056.19;6323035;28;20069;-74
2022/05/19 13:52:44;;;;;;;2.80;0.90;;;;;;;24.17;21.94;101047.25;6303911;28;20722;-74
2022/05/19 13:55:55;;;;;;;2.83;1.02;;;;;;;24.15;22.25;101054.56;6284600;28;20138;-74
2022/05/19 13:58:57;;;;;;;3.50;0.90;;;;;;;24.08;21.79;101053.53;6290531;28;20519;-75
2022/05/19 14:02:22;;;;;;;;;;;;;;;23.94;22.74;101055.78;6306247;28;20280;-74
2022/05/19 14:05:33;;;;;;;1.23;0.88;;;;;;;24.04;21.80;101044.19;6298000;28;19956;-74
2022/05/19 14:08:35;;;;;;;2.97;0.93;;;;;;;24.06;21.87;101044.88;6305287;28;20139;-79
2022/05/19 14:11:36;;;;;;;3.03;0.90;;;;;;;23.66;21.86;101041.75;6289501;28;20076;-74
2022/05/19 14:14:37;;;;;;;2.03;0.88;;;;;;;23.83;22.38;101048.06;6305635;28;20052;-74
2022/05/19 14:17:44;;;;;;;1.58;0.80;;;;;;;23.93;22.46;101047.97;6289091;28;20498;-78
2022/05/19 14:20:48;;;;;;;2.33;1.05;;;;;;;23.99;22.79;101047.34;6305520;28;20059;-78
2022/05/19 14:23:58;;;;;;;3.15;1.08;;;;;;;23.98;22.38;101045.66;6288591;28;20048;-78
2022/05/19 14:26:59;;;;;;;2.38;0.90;;;;;;;23.91;22.28;101037.44;6323133;28;20067;-78
2022/05/19 14:30:07;;;;;;;1.70;0.85;;;;;;;23.99;22.06;101027.81;6322778;28;20047;-74
2022/05/19 14:33:16;;;;;;;2.60;1.00;;;;;;;23.78;23.64;101028.19;6287627;28;20048;-74
2022/05/19 14:36:21;;;;;;;1.48;0.88;;;;;;;23.75;22.64;101023.97;6304394;28;20051;-74
2022/05/19 14:39:42;;;;;;;3.33;1.05;;;;;;;23.56;22.24;101026.84;6322412;28;20058;-74
2022/05/19 14:43:05;;;;;;;2.97;0.85;;;;;;;23.54;23.37;101017.19;6322188;28;20398;-74
2022/05/19 14:46:09;;;;;;;;;;;;;;;23.87;22.82;101008.63;6287000;28;20201;-74
2022/05/19 14:49:13;;;;;;;2.22;0.77;;;;;;;23.85;22.37;101011.44;6261576;28;20394;-74
2022/05/19 14:52:14;;;;;;;6.13;0.90;;;;;;;23.71;21.65;101003.97;6278302;28;20055;-78
2022/05/19 14:55:30;;;;;;;2.72;0.68;;;;;;;23.77;21.47;100997.22;6296376;28;20071;-79
2022/05/19 14:58:40;;;;;;;1.40;0.85;;;;;;;23.74;21.76;100996.50;6261930;28;20080;-74
2022/05/19 15:01:41;;;;;;;2.78;0.80;;;;;;;23.75;22.02;100997.34;6295905;28;20055;-74
2022/05/19 15:04:42;;;;;;;1.00;0.77;;;;;;;23.80;21.40;101003.06;6296106;28;20056;-74
2022/05/19 15:07:49;;;;;;;3.08;0.90;;;;;;;23.72;21.35;100987.84;6260583;28;20036;-74